Time;durP1;ratioP1;P1;durP2;ratioP2;P2;SDS_P1;SDS_P2;PMS_P1;PMS_P2;Temp;Humidity;BMP_temperature;BMP_pressure;BME280_temperature;BME280_humidity;BME280_pressure;Samples;Min_cycle;Max_cycle;Signal;HPM_P1;HPM_P2
2021/12/04 00:00:07;;;;;;;5.30;3.42;;;4.00;99.90;;;;;;6124049;23;20064;-83
2021/12/04 00:02:33;;;;;;;3.40;3.10;;;4.00;99.90;;;;;;6124020;23;20002;-83
2021/12/04 00:05:01;;;;;;;5.93;3.45;;;4.00;99.90;;;;;;6124312;23;20339;-83
2021/12/04 00:07:29;;;;;;;4.88;3.30;;;3.90;99.90;;;;;;6098529;23;20002;-82
2021/12/04 00:09:58;;;;;;;5.10;3.30;;;3.80;99.90;;;;;;6124430;23;20005;-82
2021/12/04 00:12:24;;;;;;;3.20;2.88;;;3.80;99.90;;;;;;6098900;23;20006;-83
2021/12/04 00:14:50;;;;;;;3.70;3.05;;;3.90;99.90;;;;;;6124102;23;20009;-84
2021/12/04 00:17:16;;;;;;;7.53;3.22;;;4.00;99.90;;;;;;6122445;23;20421;-83
2021/12/04 00:19:42;;;;;;;4.85;2.88;;;4.00;99.90;;;;;;6122666;23;20016;-85
2021/12/04 00:22:08;;;;;;;3.92;2.97;;;3.90;99.90;;;;;;6098154;23;20013;-84
2021/12/04 00:24:33;;;;;;;4.13;3.17;;;3.90;99.90;;;;;;6099153;23;20322;-83
2021/12/04 00:26:59;;;;;;;6.15;3.78;;;3.90;99.90;;;;;;6126663;23;20453;-82
2021/12/04 00:29:26;;;;;;;5.40;3.63;;;3.90;99.90;;;;;;6126956;23;20006;-83
2021/12/04 00:31:58;;;;;;;4.63;3.28;;;3.80;99.90;;;;;;6125607;23;20036;-83
2021/12/04 00:34:26;;;;;;;3.33;2.92;;;3.70;99.90;;;;;;6125486;23;20009;-82
2021/12/04 00:37:28;;;;;;;4.28;3.17;;;3.70;99.90;;;;;;6125821;23;20002;-82
2021/12/04 00:50:37;;;;;;;4.18;3.15;;;3.50;99.90;;;;;;6125468;23;20481;-82
2021/12/04 00:53:03;;;;;;;4.22;3.30;;;3.50;99.90;;;;;;6125809;23;20001;-83
2021/12/04 00:55:28;;;;;;;6.78;3.40;;;3.50;99.90;;;;;;6099574;23;20006;-82
2021/12/04 00:57:54;;;;;;;4.35;3.15;;;3.50;99.90;;;;;;6099627;23;19994;-85
2021/12/04 01:00:20;;;;;;;3.92;2.97;;;3.60;99.90;;;;;;6099980;23;20053;-82
2021/12/04 01:02:46;;;;;;;4.40;3.33;;;3.60;99.90;;;;;;6125640;23;20081;-82
2021/12/04 01:05:12;;;;;;;4.10;2.90;;;3.70;99.90;;;;;;6125689;23;20382;-82
2021/12/04 01:07:38;;;;;;;6.93;2.97;;;3.70;99.90;;;;;;6125201;23;20024;-81
2021/12/04 01:10:07;;;;;;;3.90;3.00;;;3.70;99.90;;;;;;6099781;23;20085;-82
2021/12/04 01:12:33;;;;;;;4.88;3.67;;;3.80;99.90;;;;;;6125239;23;20006;-82
2021/12/04 01:14:59;;;;;;;5.60;3.15;;;3.80;99.90;;;;;;6125552;23;19998;-83
2021/12/04 01:17:25;;;;;;;5.50;3.38;;;3.80;99.90;;;;;;6125591;23;19998;-82
2021/12/04 01:19:51;;;;;;;5.43;4.18;;;3.80;99.90;;;;;;6125582;23;20013;-82
2021/12/04 01:22:20;;;;;;;8.88;3.78;;;3.80;99.90;;;;;;6125837;23;20006;-81
2021/12/04 01:24:47;;;;;;;7.55;4.50;;;3.90;99.90;;;;;;6125821;23;20029;-83
2021/12/04 01:27:14;;;;;;;8.95;5.55;;;3.90;99.90;;;;;;6099645;23;20097;-83
2021/12/04 01:29:41;;;;;;;4.20;3.28;;;3.90;99.90;;;;;;6125380;23;20002;-84
2021/12/04 01:32:08;;;;;;;4.82;3.67;;;4.00;99.90;;;;;;6099269;23;20006;-83
2021/12/04 01:34:35;;;;;;;6.40;4.15;;;4.00;99.90;;;;;;6125592;23;20002;-82
2021/12/04 01:37:01;;;;;;;7.97;4.55;;;4.00;99.90;;;;;;6124841;23;19998;-82
2021/12/04 01:39:27;;;;;;;4.85;2.95;;;4.00;99.90;;;;;;6125470;23;20013;-82
2021/12/04 01:41:53;;;;;;;3.97;3.13;;;4.00;99.90;;;;;;6125289;23;20037;-84
2021/12/04 01:44:18;;;;;;;5.55;3.95;;;4.00;99.90;;;;;;6125713;23;20053;-84
2021/12/04 01:46:44;;;;;;;5.65;4.13;;;4.00;99.90;;;;;;6125559;23;20001;-83
2021/12/04 01:49:10;;;;;;;7.72;4.35;;;4.10;99.90;;;;;;6125366;23;20106;-84
2021/12/04 01:51:37;;;;;;;6.00;4.07;;;4.10;99.90;;;;;;6125454;23;20009;-84
2021/12/04 01:54:03;;;;;;;6.13;4.45;;;4.10;99.90;;;;;;6124612;23;19994;-83
2021/12/04 01:56:36;;;;;;;4.80;4.00;;;4.10;99.90;;;;;;6125509;23;20006;-83
2021/12/04 01:59:03;;;;;;;4.72;3.83;;;4.10;99.90;;;;;;6098694;23;20025;-83
2021/12/04 02:01:32;;;;;;;5.53;3.60;;;4.20;99.90;;;;;;6125125;23;20009;-84
2021/12/04 02:03:57;;;;;;;7.60;3.20;;;4.20;99.90;;;;;;6124505;23;20017;-82
2021/12/04 02:06:23;;;;;;;6.00;3.60;;;4.20;99.90;;;;;;6125007;23;20006;-83
2021/12/04 02:08:49;;;;;;;4.60;3.55;;;4.20;99.90;;;;;;6124756;23;19998;-82
2021/12/04 02:11:15;;;;;;;8.50;3.88;;;4.20;99.90;;;;;;6124850;23;20021;-83
2021/12/04 02:13:40;;;;;;;4.97;3.28;;;4.20;99.90;;;;;;6124417;23;19997;-81
2021/12/04 02:16:21;;;;;;;6.25;3.25;;;4.20;99.90;;;;;;6124711;23;20329;-81
2021/12/04 02:18:47;;;;;;;4.70;3.00;;;4.20;99.90;;;;;;6124277;23;20006;-81
2021/12/04 02:21:14;;;;;;;4.40;3.38;;;4.20;99.90;;;;;;6124575;23;20369;-81
2021/12/04 02:23:40;;;;;;;5.75;3.30;;;4.20;99.90;;;;;;6124327;23;19994;-81
2021/12/04 02:26:06;;;;;;;4.35;3.05;;;4.30;99.90;;;;;;6124145;23;20052;-82
2021/12/04 02:28:31;;;;;;;3.85;3.13;;;4.30;99.90;;;;;;6124438;23;20030;-81
2021/12/04 02:30:58;;;;;;;3.95;3.10;;;4.30;99.90;;;;;;6124391;23;20480;-81
2021/12/04 02:33:24;;;;;;;5.60;3.58;;;4.30;99.90;;;;;;6098245;23;20009;-81
2021/12/04 02:35:55;;;;;;;4.72;3.55;;;4.30;99.90;;;;;;6124200;23;20006;-81
2021/12/04 02:38:23;;;;;;;5.20;3.63;;;4.30;99.90;;;;;;6123986;23;20334;-81
2021/12/04 02:40:50;;;;;;;8.18;4.07;;;4.30;99.90;;;;;;6098351;23;20009;-82
2021/12/04 02:43:16;;;;;;;5.80;3.88;;;4.40;99.90;;;;;;6124235;23;20330;-82
2021/12/04 02:45:43;;;;;;;8.02;4.38;;;4.30;99.90;;;;;;6098241;23;20006;-83
2021/12/04 02:48:10;;;;;;;7.35;4.32;;;4.40;99.90;;;;;;6098099;23;20006;-83
2021/12/04 02:50:36;;;;;;;8.07;4.47;;;4.30;99.90;;;;;;6124182;23;20060;-81
2021/12/04 02:53:01;;;;;;;10.23;5.20;;;4.30;99.90;;;;;;6123932;23;20081;-82
2021/12/04 02:55:27;;;;;;;9.10;4.35;;;4.30;99.90;;;;;;6098136;23;20006;-82
2021/12/04 02:57:53;;;;;;;9.90;4.80;;;4.20;99.90;;;;;;6098282;23;20001;-81
2021/12/04 03:00:23;;;;;;;8.88;5.05;;;4.20;99.90;;;;;;6097789;23;20266;-81
2021/12/04 03:02:49;;;;;;;8.45;4.47;;;4.10;99.90;;;;;;6124018;23;20057;-81
2021/12/04 03:05:21;;;;;;;5.50;4.05;;;4.10;99.90;;;;;;6124186;23;20006;-81
2021/12/04 03:07:47;;;;;;;;;;;4.00;99.90;;;;;;6124408;23;20002;-82
2021/12/04 03:10:12;;;;;;;4.80;3.47;;;4.00;99.90;;;;;;6124351;23;20233;-82
2021/12/04 03:12:40;;;;;;;10.95;5.95;;;4.00;99.90;;;;;;6124178;23;20006;-82
2021/12/04 03:15:07;;;;;;;13.75;6.60;;;3.90;99.90;;;;;;6123824;23;19998;-83
2021/12/04 03:17:33;;;;;;;10.30;5.03;;;3.90;99.90;;;;;;6123993;23;20054;-81
2021/12/04 03:19:59;;;;;;;8.45;5.05;;;3.90;99.90;;;;;;6124039;23;20006;-82
2021/12/04 03:22:26;;;;;;;8.70;5.10;;;3.90;99.90;;;;;;6124161;23;20397;-83
2021/12/04 03:24:52;;;;;;;4.10;3.65;;;3.90;99.90;;;;;;6124020;23;20453;-83
2021/12/04 03:27:19;;;;;;;6.70;4.30;;;3.90;99.90;;;;;;6097944;23;20358;-81
2021/12/04 03:29:53;;;;;;;5.38;4.05;;;4.00;99.90;;;;;;6124005;23;20012;-82
2021/12/04 03:43:09;;;;;;;4.65;3.72;;;4.00;99.90;;;;;;6091951;23;20014;-82
2021/12/04 03:45:37;;;;;;;4.22;3.55;;;3.90;99.90;;;;;;6097620;23;20006;-84
2021/12/04 03:48:28;;;;;;;6.15;3.90;;;4.00;99.90;;;;;;6124180;23;20014;-83
2021/12/04 03:50:54;;;;;;;5.05;3.75;;;3.90;99.90;;;;;;6124237;23;20010;-83
2021/12/04 03:53:19;;;;;;;4.25;3.58;;;3.90;99.90;;;;;;6124011;23;20129;-82
2021/12/04 03:55:45;;;;;;;4.03;3.47;;;3.90;99.90;;;;;;6123702;23;20581;-83
2021/12/04 03:58:11;;;;;;;5.10;3.60;;;3.90;99.90;;;;;;6124293;23;20002;-83
2021/12/04 04:00:36;;;;;;;6.43;3.70;;;3.90;99.90;;;;;;6099360;23;20017;-83
2021/12/04 04:03:02;;;;;;;4.47;3.30;;;3.90;99.90;;;;;;6126471;23;20718;-83
2021/12/04 04:05:28;;;;;;;5.45;3.95;;;3.80;99.90;;;;;;6100061;23;20010;-82
2021/12/04 04:07:54;;;;;;;4.10;3.67;;;3.80;99.90;;;;;;6126474;23;20329;-82
2021/12/04 04:10:21;;;;;;;4.75;3.55;;;3.80;99.90;;;;;;6100033;23;20085;-83
2021/12/04 04:12:47;;;;;;;4.38;3.45;;;3.80;99.90;;;;;;6125773;23;20012;-83
2021/12/04 04:15:13;;;;;;;3.95;3.55;;;3.80;99.90;;;;;;6126048;23;20002;-81
2021/12/04 04:17:42;;;;;;;4.50;3.70;;;3.70;99.90;;;;;;6099979;23;20006;-82
2021/12/04 04:20:16;;;;;;;5.50;3.63;;;3.70;99.90;;;;;;6125459;23;20026;-82
2021/12/04 04:22:42;;;;;;;4.57;3.50;;;3.70;99.90;;;;;;6099799;23;20006;-83
2021/12/04 04:25:09;;;;;;;4.47;3.38;;;3.70;99.90;;;;;;6099779;23;20006;-83
2021/12/04 04:27:36;;;;;;;6.57;3.95;;;3.70;99.90;;;;;;6125917;23;20038;-85
2021/12/04 04:30:08;;;;;;;5.30;3.67;;;3.70;99.90;;;;;;6099957;23;20013;-84
2021/12/04 04:32:34;;;;;;;4.32;3.53;;;3.70;99.90;;;;;;6125867;23;20025;-84
2021/12/04 04:35:09;;;;;;;5.60;4.00;;;3.70;99.90;;;;;;6100159;23;20061;-83
2021/12/04 04:57:23;;;;;;;5.15;3.33;;;3.60;99.90;;;;;;6125420;23;20056;-82
2021/12/04 04:59:49;;;;;;;4.68;3.33;;;3.50;99.90;;;;;;6125489;23;20667;-82
2021/12/04 05:13:07;;;;;;;4.00;3.45;;;3.20;99.90;;;;;;6125056;23;20075;-83
2021/12/04 05:20:52;;;;;;;5.30;3.72;;;3.10;99.90;;;;;;6127523;23;20096;-83
2021/12/04 05:23:18;;;;;;;5.90;3.63;;;3.10;99.90;;;;;;6126214;23;20032;-83
2021/12/04 05:25:44;;;;;;;4.07;3.08;;;3.00;99.90;;;;;;6126286;23;20109;-83
2021/12/04 05:28:10;;;;;;;8.60;3.72;;;3.10;99.90;;;;;;6126207;23;20442;-81
2021/12/04 05:30:36;;;;;;;3.97;3.10;;;3.00;99.90;;;;;;6126139;23;20433;-83
2021/12/04 05:33:03;;;;;;;4.82;3.70;;;3.00;99.90;;;;;;6125483;23;20002;-84
2021/12/04 05:35:28;;;;;;;4.75;3.45;;;3.10;99.90;;;;;;6126149;23;20002;-82
2021/12/04 05:37:54;;;;;;;4.53;3.20;;;3.10;99.90;;;;;;6125846;23;20028;-82
2021/12/04 05:40:20;;;;;;;3.90;3.22;;;3.10;99.90;;;;;;6099374;23;20018;-82
2021/12/04 05:42:47;;;;;;;3.97;3.58;;;3.10;99.90;;;;;;6125949;23;20022;-84
2021/12/04 05:45:23;;;;;;;4.43;3.28;;;3.10;99.90;;;;;;6125633;23;20002;-81
2021/12/04 05:48:15;;;;;;;3.83;3.35;;;3.20;99.90;;;;;;6125754;23;20008;-81
2021/12/04 05:50:56;;;;;;;5.15;3.67;;;3.20;99.90;;;;;;6124536;23;20002;-82
2021/12/04 05:53:27;;;;;;;4.55;3.50;;;3.30;99.90;;;;;;6125361;23;20029;-81
2021/12/04 05:55:56;;;;;;;4.57;3.53;;;3.30;99.90;;;;;;6099869;23;20371;-83
2021/12/04 05:58:25;;;;;;;4.28;3.40;;;3.30;99.90;;;;;;6125930;23;20053;-83
2021/12/04 06:00:53;;;;;;;6.43;3.83;;;3.40;99.90;;;;;;6126024;23;20445;-83
2021/12/04 06:03:19;;;;;;;5.85;3.22;;;3.40;99.90;;;;;;6125756;23;20002;-83
2021/12/04 06:05:45;;;;;;;4.40;3.30;;;3.30;99.90;;;;;;6125764;23;20006;-83
2021/12/04 06:08:11;;;;;;;4.97;3.03;;;3.30;99.90;;;;;;6125498;23;20022;-82
2021/12/04 06:10:37;;;;;;;4.70;3.70;;;3.30;99.90;;;;;;6125770;23;20056;-83
2021/12/04 06:13:03;;;;;;;4.22;3.42;;;3.20;99.90;;;;;;6125717;23;20032;-81
2021/12/04 06:15:29;;;;;;;5.85;4.03;;;3.20;99.90;;;;;;6125536;23;20442;-82
2021/12/04 06:17:55;;;;;;;5.00;3.40;;;3.20;99.90;;;;;;6125699;23;20437;-83
2021/12/04 06:23:06;;;;;;;3.22;2.92;;;3.20;99.90;;;;;;6124825;23;20382;-82
2021/12/04 06:25:32;;;;;;;4.15;3.25;;;3.20;99.90;;;;;;6125071;23;20002;-82
2021/12/04 06:27:58;;;;;;;4.10;3.25;;;3.30;99.90;;;;;;6125249;23;20006;-83
2021/12/04 06:30:25;;;;;;;4.60;3.70;;;3.30;99.90;;;;;;6099659;23;20009;-83
2021/12/04 06:32:53;;;;;;;4.47;3.58;;;3.40;99.90;;;;;;6125294;23;20034;-82
2021/12/04 06:35:20;;;;;;;5.28;3.90;;;3.40;99.90;;;;;;6125912;23;19997;-84
2021/12/04 06:37:48;;;;;;;4.40;3.30;;;3.40;99.90;;;;;;6098938;23;20445;-81
2021/12/04 06:40:15;;;;;;;3.55;3.25;;;3.40;99.90;;;;;;6099110;23;20014;-83
2021/12/04 06:42:42;;;;;;;5.25;3.70;;;3.50;99.90;;;;;;6125256;23;20024;-82
2021/12/04 06:45:09;;;;;;;8.30;3.63;;;3.50;99.90;;;;;;6125514;23;20077;-82
2021/12/04 06:47:37;;;;;;;3.85;3.30;;;3.60;99.90;;;;;;6125053;23;20444;-81
2021/12/04 06:50:08;;;;;;;4.82;3.45;;;3.60;99.90;;;;;;6124783;23;20009;-82
2021/12/04 06:52:35;;;;;;;7.28;3.92;;;3.60;99.90;;;;;;6099047;23;20002;-82
2021/12/04 06:55:02;;;;;;;4.45;3.33;;;3.60;99.90;;;;;;6125157;23;20052;-83
2021/12/04 06:57:31;;;;;;;4.18;3.30;;;3.60;99.90;;;;;;6098330;23;20466;-82
2021/12/04 06:59:57;;;;;;;4.40;3.30;;;3.60;99.90;;;;;;6124228;23;20009;-82
2021/12/04 07:02:23;;;;;;;4.57;3.70;;;3.60;99.90;;;;;;6126334;23;19999;-84
2021/12/04 07:04:49;;;;;;;5.20;3.80;;;3.60;99.90;;;;;;6127780;23;20060;-85
2021/12/04 07:07:15;;;;;;;5.72;3.95;;;3.60;99.90;;;;;;6127121;23;20036;-82
2021/12/04 07:09:42;;;;;;;5.05;4.10;;;3.60;99.90;;;;;;6127121;23;20378;-87
2021/12/04 07:12:10;;;;;;;8.20;4.75;;;3.60;99.90;;;;;;6128783;23;20057;-84
2021/12/04 07:14:37;;;;;;;6.07;4.75;;;3.70;99.90;;;;;;6127466;23;20382;-85
2021/12/04 07:17:04;;;;;;;7.38;4.90;;;3.70;99.90;;;;;;6128588;23;20004;-82
2021/12/04 07:19:31;;;;;;;4.85;3.47;;;3.80;99.90;;;;;;6125720;23;20334;-85
2021/12/04 07:21:58;;;;;;;5.28;3.65;;;3.80;99.90;;;;;;6125031;23;20008;-85
2021/12/04 07:24:23;;;;;;;10.00;4.10;;;3.90;99.90;;;;;;6107986;23;20006;-83
2021/12/04 07:26:49;;;;;;;4.53;3.67;;;4.00;99.90;;;;;;6140853;23;20020;-84
2021/12/04 07:29:15;;;;;;;5.00;3.78;;;4.10;99.90;;;;;;6127984;23;19998;-85
2021/12/04 07:31:40;;;;;;;4.85;3.50;;;4.20;99.90;;;;;;6133174;23;20002;-84
2021/12/04 07:34:06;;;;;;;4.13;3.33;;;4.40;99.90;;;;;;6110200;23;20002;-84
2021/12/04 07:36:33;;;;;;;5.75;3.83;;;4.60;99.90;;;;;;6134512;23;20005;-83
2021/12/04 07:38:59;;;;;;;4.03;3.33;;;4.80;99.90;;;;;;6100218;23;20010;-85
2021/12/04 07:41:26;;;;;;;4.18;3.35;;;5.00;99.90;;;;;;6100270;23;20025;-83
2021/12/04 07:43:52;;;;;;;4.78;3.85;;;5.10;99.90;;;;;;6126162;23;20005;-83
2021/12/04 07:46:18;;;;;;;4.53;3.70;;;5.10;99.90;;;;;;6126497;23;20005;-82
2021/12/04 07:48:44;;;;;;;7.28;3.08;;;5.10;99.90;;;;;;6102663;23;20014;-86
2021/12/04 07:51:10;;;;;;;4.45;3.30;;;5.10;99.90;;;;;;6130796;23;20357;-87
2021/12/04 07:53:36;;;;;;;4.53;3.35;;;5.10;99.90;;;;;;6132384;23;20013;-88
2021/12/04 07:56:03;;;;;;;6.07;4.10;;;5.10;99.90;;;;;;6135309;23;20008;-87
2021/12/04 07:58:30;;;;;;;4.35;3.35;;;5.10;99.90;;;;;;6133128;23;20002;-86
2021/12/04 08:00:56;;;;;;;4.80;3.65;;;5.20;99.90;;;;;;6128581;23;20002;-89
2021/12/04 08:03:22;;;;;;;4.60;3.97;;;5.30;99.90;;;;;;6130463;23;20056;-87
2021/12/04 08:05:49;;;;;;;8.93;5.93;;;5.40;99.90;;;;;;6133074;23;20050;-88
2021/12/04 08:08:15;;;;;;;17.02;8.48;;;5.50;99.90;;;;;;6131472;23;20005;-87
2021/12/04 08:10:41;;;;;;;6.70;4.70;;;5.50;99.90;;;;;;6126567;23;20002;-85
2021/12/04 08:13:07;;;;;;;4.70;3.42;;;5.60;99.90;;;;;;6128357;23;19998;-84
2021/12/04 08:15:36;;;;;;;7.47;4.13;;;5.70;99.90;;;;;;6124634;23;20002;-87
2021/12/04 08:18:07;;;;;;;3.63;3.33;;;5.70;99.90;;;;;;6126549;23;20005;-85
2021/12/04 08:20:33;;;;;;;4.35;3.35;;;5.80;99.90;;;;;;6124516;23;20021;-86
2021/12/04 08:22:58;;;;;;;4.93;3.40;;;6.00;99.90;;;;;;6125541;23;20030;-83
2021/12/04 08:25:25;;;;;;;5.10;3.67;;;6.10;99.90;;;;;;6124778;23;20009;-82
2021/12/04 08:27:51;;;;;;;3.92;3.08;;;6.20;99.90;;;;;;6125274;23;20673;-81
2021/12/04 08:30:21;;;;;;;3.90;2.95;;;6.40;99.90;;;;;;6123670;23;20429;-82
2021/12/04 08:32:48;;;;;;;4.18;3.45;;;6.50;99.90;;;;;;6123566;23;20081;-82
2021/12/04 08:35:18;;;;;;;5.05;3.00;;;6.70;99.90;;;;;;6123608;23;20085;-88
2021/12/04 08:37:44;;;;;;;6.28;4.05;;;6.80;99.90;;;;;;6124251;23;19998;-83
2021/12/04 08:40:14;;;;;;;8.95;4.20;;;6.90;99.90;;;;;;6125235;23;20010;-86
2021/12/04 08:42:45;;;;;;;9.23;5.78;;;7.00;99.90;;;;;;6129143;23;20061;-85
2021/12/04 08:45:12;;;;;;;8.55;4.40;;;7.10;99.90;;;;;;6127421;23;20525;-89
2021/12/04 08:47:38;;;;;;;4.55;3.30;;;7.30;99.90;;;;;;6128633;23;19990;-87
2021/12/04 08:50:07;;;;;;;8.45;3.55;;;7.40;99.90;;;;;;6128546;23;20032;-85
2021/12/04 08:52:33;;;;;;;4.03;3.35;;;7.60;99.90;;;;;;6127638;23;20006;-86
2021/12/04 08:54:59;;;;;;;24.90;11.57;;;7.80;99.90;;;;;;6128627;23;20006;-86
2021/12/04 08:57:24;;;;;;;4.18;3.35;;;8.00;99.90;;;;;;6128834;23;19997;-89
2021/12/04 08:59:52;;;;;;;4.80;3.25;;;8.10;99.70;;;;;;6128906;23;20010;-89
2021/12/04 09:02:18;;;;;;;5.55;3.63;;;8.10;99.70;;;;;;6128404;23;20057;-85
2021/12/04 09:04:46;;;;;;;6.82;4.13;;;8.00;98.70;;;;;;6126925;23;20002;-86
2021/12/04 09:07:13;;;;;;;6.68;3.65;;;8.00;99.80;;;;;;6127189;23;20009;-85
2021/12/04 09:09:38;;;;;;;5.30;4.00;;;7.80;99.70;;;;;;6126429;23;20002;-83
2021/12/04 09:12:10;;;;;;;6.45;3.90;;;7.70;99.50;;;;;;6128958;23;20017;-89
2021/12/04 09:14:40;;;;;;;7.85;5.75;;;7.60;99.80;;;;;;6126700;23;20005;-86
2021/12/04 09:17:08;;;;;;;10.50;8.35;;;7.60;99.00;;;;;;6103457;23;20022;-88
2021/12/04 09:19:35;;;;;;;10.45;6.28;;;7.50;98.40;;;;;;6127290;23;20383;-87
2021/12/04 09:22:01;;;;;;;9.52;6.88;;;7.50;98.60;;;;;;6129071;23;20041;-87
2021/12/04 09:24:30;;;;;;;6.43;2.85;;;7.50;98.10;;;;;;6131497;23;20009;-88
2021/12/04 09:37:01;;;;;;;15.88;8.48;;;7.60;93.90;;;;;;6129234;23;20006;-86
2021/12/04 10:18:26;;;;;;;2.22;1.67;;;10.10;73.20;;;;;;6126581;23;20507;-87
2021/12/04 10:34:15;;;;;;;2.75;2.42;;;11.00;76.20;;;;;;6111884;23;20422;-88
2021/12/04 10:36:41;;;;;;;3.58;2.20;;;10.90;74.10;;;;;;6127804;23;19998;-84
2021/12/04 10:39:10;;;;;;;2.65;2.33;;;10.70;69.60;;;;;;6130215;23;20005;-86
2021/12/04 10:41:43;;;;;;;3.10;2.03;;;10.50;70.70;;;;;;6128373;23;20605;-87
2021/12/04 10:44:29;;;;;;;3.53;2.42;;;10.20;71.50;;;;;;6101885;23;20012;-87
2021/12/04 10:47:10;;;;;;;5.72;2.60;;;10.20;78.20;;;;;;6101696;23;20012;-86
2021/12/04 10:55:22;;;;;;;3.70;2.17;;;9.90;79.50;;;;;;6123935;23;20016;-87
2021/12/04 11:03:53;;;;;;;3.40;2.40;;;10.20;79.90;;;;;;6123137;23;20014;-86
2021/12/04 11:37:00;;;;;;;4.55;3.17;;;12.00;69.80;;;;;;6123331;23;20013;-86
2021/12/04 11:42:24;;;;;;;3.58;2.15;;;11.80;70.70;;;;;;6123422;23;20044;-87
2021/12/04 11:45:03;;;;;;;3.15;2.20;;;11.90;71.70;;;;;;6123795;23;20028;-88
2021/12/04 11:47:40;;;;;;;2.72;2.10;;;11.90;69.00;;;;;;6124962;23;20009;-85
2021/12/04 11:50:17;;;;;;;2.30;1.98;;;12.10;72.30;;;;;;6123539;23;20006;-86
2021/12/04 11:52:48;;;;;;;4.32;2.45;;;12.20;73.60;;;;;;6124543;23;20002;-87
2021/12/04 11:55:16;;;;;;;2.03;1.70;;;12.20;73.10;;;;;;6129130;23;20006;-87
2021/12/04 11:57:42;;;;;;;3.92;2.05;;;12.30;74.40;;;;;;6128834;23;20002;-88
2021/12/04 12:00:16;;;;;;;4.03;2.15;;;12.40;72.00;;;;;;6130490;23;20456;-88
2021/12/04 12:02:42;;;;;;;3.10;2.30;;;12.60;73.40;;;;;;6128965;23;20013;-89
2021/12/04 12:05:15;;;;;;;4.05;2.10;;;12.70;73.80;;;;;;6127433;23;20077;-86
2021/12/04 12:07:54;;;;;;;4.05;2.90;;;12.70;70.10;;;;;;6128041;23;20006;-84
2021/12/04 12:10:23;;;;;;;2.60;2.20;;;12.20;74.80;;;;;;6132228;23;20032;-89
2021/12/04 12:12:51;;;;;;;3.30;3.00;;;11.70;74.40;;;;;;6130623;23;19998;-85
2021/12/04 12:15:31;;;;;;;10.63;2.60;;;11.40;74.00;;;;;;6125391;23;20002;-90
2021/12/04 12:18:13;;;;;;;2.67;2.10;;;11.70;75.20;;;;;;6131292;23;20005;-89
2021/12/04 12:20:50;;;;;;;5.53;4.78;;;11.60;75.40;;;;;;6132256;23;20068;-90
2021/12/04 12:23:20;;;;;;;8.63;3.65;;;11.60;78.50;;;;;;6134256;23;20005;-87
2021/12/04 12:37:24;;;;;;;9.07;6.53;;;11.50;80.10;;;;;;6135689;23;20042;-89
2021/12/04 12:40:06;;;;;;;4.93;4.25;;;11.60;79.10;;;;;;6133924;23;20468;-87
2021/12/04 12:42:38;;;;;;;9.67;6.07;;;11.60;80.50;;;;;;6136730;23;20008;-90
2021/12/04 12:45:28;;;;;;;4.68;3.00;;;11.90;79.20;;;;;;6117993;23;20022;-90
2021/12/04 12:48:04;;;;;;;4.78;2.70;;;12.00;79.10;;;;;;6141194;23;20065;-90
2021/12/04 12:50:41;;;;;;;3.72;2.13;;;12.00;77.70;;;;;;6137152;23;20065;-89
2021/12/04 12:53:14;;;;;;;2.17;1.95;;;12.00;76.50;;;;;;6111254;23;20009;-90
2021/12/04 12:55:42;;;;;;;4.07;2.20;;;12.10;77.60;;;;;;6140285;23;20002;-89
2021/12/04 12:58:31;;;;;;;5.47;2.50;;;12.20;76.90;;;;;;6112577;23;20034;-91
2021/12/04 13:12:51;;;;;;;6.35;2.80;;;12.60;77.10;;;;;;6134865;23;20064;-89
2021/12/04 13:15:39;;;;;;;6.35;3.33;;;12.40;77.00;;;;;;6110696;23;20085;-87
2021/12/04 13:18:12;;;;;;;6.05;3.50;;;12.30;78.10;;;;;;6114776;23;20002;-91
2021/12/04 13:20:39;;;;;;;6.35;3.30;;;12.50;78.30;;;;;;6137446;23;20048;-91
2021/12/04 13:23:09;;;;;;;4.07;2.20;;;12.60;75.60;;;;;;6112415;23;20016;-92
2021/12/04 13:25:36;;;;;;;3.58;3.10;;;12.60;76.30;;;;;;6138126;23;20512;-90
2021/12/04 13:30:27;;;;;;;6.50;3.72;;;12.40;77.10;;;;;;6147982;23;20008;-90
2021/12/04 13:32:53;;;;;;;5.63;4.32;;;12.50;78.10;;;;;;6141326;23;20012;-91
2021/12/04 13:35:21;;;;;;;6.55;3.58;;;12.40;80.90;;;;;;6111939;23;20021;-91
2021/12/04 13:37:49;;;;;;;4.25;3.20;;;12.50;79.40;;;;;;6138002;23;20002;-90
2021/12/04 13:40:19;;;;;;;4.78;2.97;;;12.40;78.80;;;;;;6136436;23;20074;-89
2021/12/04 13:42:45;;;;;;;4.10;3.10;;;12.40;83.30;;;;;;6106471;23;20077;-89
2021/12/04 13:45:14;;;;;;;5.07;3.28;;;12.20;80.90;;;;;;6107752;23;20438;-91
2021/12/04 13:47:41;;;;;;;5.03;3.58;;;11.80;80.10;;;;;;6131974;23;20045;-84
2021/12/04 13:52:55;;;;;;;5.60;3.08;;;10.90;83.20;;;;;;6117330;23;20108;-90
2021/12/04 13:55:21;;;;;;;8.15;5.93;;;10.50;84.70;;;;;;6134441;23;20056;-90
2021/12/04 13:57:47;;;;;;;6.95;3.88;;;10.20;86.40;;;;;;6133921;23;20030;-88
2021/12/04 14:00:15;;;;;;;11.38;4.65;;;10.00;87.40;;;;;;6131429;23;20013;-89
2021/12/04 14:02:42;;;;;;;8.70;3.95;;;9.80;89.50;;;;;;6138994;23;20002;-90
2021/12/04 14:05:14;;;;;;;5.40;3.70;;;9.50;89.60;;;;;;6146541;23;20057;-90
2021/12/04 14:08:00;;;;;;;8.40;5.13;;;9.30;90.60;;;;;;6138792;23;19998;-92
2021/12/04 14:10:32;;;;;;;20.30;8.63;;;9.30;90.20;;;;;;6142912;23;20021;-88
2021/12/04 14:13:01;;;;;;;9.95;4.03;;;9.20;91.60;;;;;;6134074;23;20014;-90
2021/12/04 14:15:27;;;;;;;6.50;3.80;;;9.20;91.10;;;;;;6133956;23;20006;-90
2021/12/04 14:18:09;;;;;;;7.10;3.70;;;9.20;91.30;;;;;;6135726;23;20006;-88
2021/12/04 14:20:37;;;;;;;5.23;3.73;;;9.20;91.20;;;;;;6109554;23;20109;-90
2021/12/04 14:23:04;;;;;;;6.28;3.30;;;9.20;91.50;;;;;;6133967;23;20083;-88
2021/12/04 14:25:30;;;;;;;12.55;7.72;;;9.20;92.00;;;;;;6127303;23;20033;-84
2021/12/04 14:27:59;;;;;;;9.18;5.00;;;9.10;91.70;;;;;;6123151;23;20085;-85
2021/12/04 14:30:35;;;;;;;7.18;6.07;;;9.10;91.90;;;;;;6129399;23;20033;-84
2021/12/04 14:33:06;;;;;;;11.25;5.85;;;9.00;92.00;;;;;;6140557;23;19998;-91
2021/12/04 14:35:35;;;;;;;11.75;5.35;;;9.00;92.30;;;;;;6134440;23;20009;-86
2021/12/04 14:38:02;;;;;;;4.05;2.90;;;8.90;92.40;;;;;;6131027;23;20026;-84
2021/12/04 14:40:43;;;;;;;10.85;6.53;;;8.90;92.80;;;;;;6107198;23;20018;-87
2021/12/04 14:43:15;;;;;;;8.48;5.07;;;8.80;93.20;;;;;;6129143;23;19998;-85
2021/12/04 14:45:47;;;;;;;11.50;4.80;;;8.80;93.70;;;;;;6131205;23;20002;-89
2021/12/04 14:48:24;;;;;;;7.85;4.25;;;8.80;93.30;;;;;;6104695;23;20005;-88
2021/12/04 14:50:55;;;;;;;6.32;4.22;;;8.80;93.60;;;;;;6102647;23;20012;-90
2021/12/04 14:53:22;;;;;;;4.22;3.47;;;8.90;93.60;;;;;;6131633;23;20006;-89
2021/12/04 14:55:50;;;;;;;4.68;2.90;;;8.80;94.10;;;;;;6130271;23;20501;-87
2021/12/04 14:58:19;;;;;;;4.25;3.53;;;8.90;94.00;;;;;;6127696;23;20002;-86
2021/12/04 15:00:54;;;;;;;3.85;3.15;;;9.00;95.60;;;;;;6126580;23;20014;-85
2021/12/04 15:03:41;;;;;;;15.02;9.90;;;9.00;94.30;;;;;;6125330;23;20002;-83
2021/12/04 15:06:11;;;;;;;5.35;4.47;;;9.00;94.60;;;;;;6100003;23;20314;-88
2021/12/04 15:08:40;;;;;;;4.85;3.80;;;9.10;96.20;;;;;;6127256;23;20117;-85
2021/12/04 15:11:10;;;;;;;5.30;3.22;;;9.10;97.00;;;;;;6126535;23;20021;-87
2021/12/04 15:13:42;;;;;;;4.60;3.15;;;9.20;97.80;;;;;;6125329;23;20030;-87
2021/12/04 15:16:10;;;;;;;8.15;3.40;;;9.10;97.60;;;;;;6121882;23;20441;-82
2021/12/04 15:18:39;;;;;;;7.53;4.22;;;9.20;98.80;;;;;;6122478;23;20010;-84
2021/12/04 15:21:15;;;;;;;14.80;6.55;;;9.20;98.00;;;;;;6098270;23;20022;-90
2021/12/04 15:23:44;;;;;;;85.07;27.27;;;9.10;98.40;;;;;;6098269;23;20509;-84
2021/12/04 15:26:17;;;;;;;39.00;17.85;;;9.10;98.90;;;;;;6122378;23;20022;-83
2021/12/04 15:28:54;;;;;;;68.10;28.05;;;9.10;99.20;;;;;;6124188;23;19994;-87
2021/12/04 15:31:24;;;;;;;15.20;7.93;;;9.00;99.50;;;;;;6134179;23;19994;-86
2021/12/04 15:33:54;;;;;;;10.43;6.40;;;9.00;99.90;;;;;;6126302;23;20009;-85
2021/12/04 15:36:24;;;;;;;8.27;4.88;;;8.90;99.90;;;;;;6125896;23;20010;-87
2021/12/04 15:38:53;;;;;;;8.05;5.85;;;8.90;99.90;;;;;;6127533;23;20002;-86
2021/12/04 15:41:59;;;;;;;6.55;5.10;;;8.90;99.90;;;;;;6123046;23;20504;-83
2021/12/04 15:53:08;;;;;;;15.18;6.90;;;8.80;99.90;;;;;;6080722;23;20090;-83
2021/12/04 15:55:56;;;;;;;16.27;7.43;;;8.80;99.90;;;;;;6101933;23;20028;-83
2021/12/04 15:58:28;;;;;;;50.20;19.25;;;8.70;99.90;;;;;;6127686;23;20026;-82
2021/12/04 16:01:12;;;;;;;28.25;11.88;;;8.70;99.90;;;;;;6101450;23;20018;-86
2021/12/04 16:03:40;;;;;;;15.38;8.10;;;8.70;99.90;;;;;;6127841;23;19998;-86
2021/12/04 16:06:11;;;;;;;20.20;8.45;;;8.60;99.90;;;;;;6126430;23;20065;-83
2021/12/04 16:08:39;;;;;;;10.63;6.30;;;8.70;99.90;;;;;;6127152;23;20512;-85
2021/12/04 16:11:08;;;;;;;9.00;5.72;;;8.70;99.90;;;;;;6128465;23;20214;-84
2021/12/04 16:13:36;;;;;;;9.70;6.15;;;8.70;99.90;;;;;;6130154;23;20009;-83
2021/12/04 16:16:13;;;;;;;11.02;6.93;;;8.70;99.90;;;;;;6127055;23;20088;-86
2021/12/04 16:18:39;;;;;;;13.88;9.25;;;8.70;99.90;;;;;;6131723;23;20009;-84
2021/12/04 16:21:05;;;;;;;15.50;10.25;;;8.70;99.90;;;;;;6128297;23;20006;-83
2021/12/04 16:23:33;;;;;;;19.15;12.55;;;8.70;99.90;;;;;;6125262;23;20029;-83
2021/12/04 16:26:00;;;;;;;22.83;12.80;;;8.70;99.90;;;;;;6124622;23;20049;-84